Haifa, Israel

06:15 PM IST on octombrie 31, 2014 (GMT +0200)
Haifa | Change Station
CLOSE
Current Station
Staţie meteo personală
Location: Haifa, -
Elevation: 676 ft
Nearby Weather Stations

Elev 676 ft 32.81 °N, 34.99 °E | Updated 6 minutes ago

Scattered Clouds
Nori risipiţi
63.9 °F
Feels Like 63.9 °F
N
2.0
Vânt variabil Vânt from SSE
Gusts 7.0 mph

astăzi
High -- | Low -- °F
--% Chance of Precip.
Ieri
High -- | Low -- °F
Precip. -- inch
5:56 AM 4:50 PM
Primul pătrar, 56% visible
Presiunea 29.95 inch
Vizibilitatea 6.2 mile
Nori Nori risipiţi 3500 ft
Punctul de rouă 58 °F
Umiditatea 81%
Precipitaţii 0.46 inch
Adâncimea zăpezii Not available.
UV 0.0 out of 12
Pollen Not available.
Calitatea aerului Not available.
Flu Activity Not available.
METAR LLHA 311550Z 08008KT 9999 SCT035 19/13 Q1014

More Conditions Fewer Conditions

Presiunea 29.95 inch
Vizibilitatea 6.2 mile
Nori Nori risipiţi 3500 ft
Punctul de rouă 58 °F
Umiditatea 81%
Precipitaţii 0.46 inch
Adâncimea zăpezii Not available.
UV 0.0 out of 12
Pollen Not available.
Calitatea aerului Not available.
Flu Activity Not available.
METAR LLHA 311550Z 08008KT 9999 SCT035 19/13 Q1014

More Conditions Fewer Conditions

10-Day Weather Forecast

Almanac

Astronomie

Oct. 31, 2014 Răsărit Apus
Timpul Actual
Crepusculul Civil
Crepusculul nautic
Răsărit Astronomic
Luna
Durata zilei lumină
Lungimea zilei
Tomorrow will be .
, % of the Moon is Illuminated

Extremele de azi

Country Highs Country Lows

Community

WunderPhotos

Upload Photos

1,766,651 photos uploaded!

WunderBlogs® & News

Nearby

Calitatea aerului

  Calitatea aerului Index de calitate a aerului Poluat
Not available.

Adâncimea zapezii

Station Depth Elevation

Earthquake Activity

Oraş Distance Mag. Time & Date
Minimum magnitude displayed is 2.5.

Coastal Water Temperatures

Locul Temperatura

Nearby Weather Stations